Aviation Digital Data Service (ADDS)

Output produced by METARs form (1216 UTC 10 July 2020)
found at http://www.aviationweather.gov/metar/data/
 
LFRN 101200Z AUTO 32011KT 9999 FEW045 21/10 Q1020 NOSIG
TAF LFRN 101100Z 1012/1112 32010KT 9999 BKN030 
     BECMG 1015/1017 CAVOK 
     BECMG 1100/1102 35005KT 
     PROB30 
     TEMPO 1102/1106 3000 BR